sensor_id;sensor_type;location;lat;lon;timestamp;temperature;humidity
38020;DHT22;23829;51.350;17.286;2023-03-03T00:01:14;18.30;36.00
38020;DHT22;23829;51.350;17.286;2023-03-03T00:03:41;18.30;36.10
38020;DHT22;23829;51.350;17.286;2023-03-03T00:06:10;18.30;36.00
38020;DHT22;23829;51.350;17.286;2023-03-03T00:08:38;18.30;35.90
38020;DHT22;23829;51.350;17.286;2023-03-03T00:11:06;18.40;35.70
38020;DHT22;23829;51.350;17.286;2023-03-03T00:13:44;18.20;36.10
38020;DHT22;23829;51.350;17.286;2023-03-03T00:18:49;18.90;35.00
38020;DHT22;23829;51.350;17.286;2023-03-03T00:24:16;18.90;34.70
38020;DHT22;23829;51.350;17.286;2023-03-03T00:26:45;18.60;35.40
38020;DHT22;23829;51.350;17.286;2023-03-03T00:29:27;18.40;35.70
38020;DHT22;23829;51.350;17.286;2023-03-03T00:34:41;18.80;35.30
38020;DHT22;23829;51.350;17.286;2023-03-03T00:37:30;18.80;35.10
38020;DHT22;23829;51.350;17.286;2023-03-03T00:40:12;19.00;34.70
38020;DHT22;23829;51.350;17.286;2023-03-03T00:42:44;19.10;34.50
38020;DHT22;23829;51.350;17.286;2023-03-03T00:47:51;19.30;34.30
38020;DHT22;23829;51.350;17.286;2023-03-03T00:50:30;19.10;34.80
38020;DHT22;23829;51.350;17.286;2023-03-03T00:53:01;19.00;35.10
38020;DHT22;23829;51.350;17.286;2023-03-03T00:55:27;18.80;35.10
38020;DHT22;23829;51.350;17.286;2023-03-03T00:57:54;18.80;35.30
38020;DHT22;23829;51.350;17.286;2023-03-03T01:00:25;18.80;36.00
38020;DHT22;23829;51.350;17.286;2023-03-03T01:02:52;19.00;35.20
38020;DHT22;23829;51.350;17.286;2023-03-03T01:05:19;19.00;35.00
38020;DHT22;23829;51.350;17.286;2023-03-03T01:07:45;19.10;35.10
38020;DHT22;23829;51.350;17.286;2023-03-03T01:10:12;19.20;35.00
38020;DHT22;23829;51.350;17.286;2023-03-03T01:12:39;19.30;34.60
38020;DHT22;23829;51.350;17.286;2023-03-03T01:15:08;19.40;34.60
38020;DHT22;23829;51.350;17.286;2023-03-03T01:17:35;19.50;34.20
38020;DHT22;23829;51.350;17.286;2023-03-03T01:20:02;19.60;33.90
38020;DHT22;23829;51.350;17.286;2023-03-03T01:22:29;19.60;33.80
38020;DHT22;23829;51.350;17.286;2023-03-03T01:24:55;19.70;33.90
38020;DHT22;23829;51.350;17.286;2023-03-03T01:27:22;19.70;33.90
38020;DHT22;23829;51.350;17.286;2023-03-03T01:29:48;19.60;34.10
38020;DHT22;23829;51.350;17.286;2023-03-03T01:32:14;19.30;34.20
38020;DHT22;23829;51.350;17.286;2023-03-03T01:34:41;19.30;34.70
38020;DHT22;23829;51.350;17.286;2023-03-03T01:37:07;19.30;34.60
38020;DHT22;23829;51.350;17.286;2023-03-03T01:39:34;19.40;34.20
38020;DHT22;23829;51.350;17.286;2023-03-03T01:42:03;19.40;34.10
38020;DHT22;23829;51.350;17.286;2023-03-03T01:44:29;19.20;34.30
38020;DHT22;23829;51.350;17.286;2023-03-03T01:47:16;19.00;34.60
38020;DHT22;23829;51.350;17.286;2023-03-03T01:50:02;18.80;34.90
38020;DHT22;23829;51.350;17.286;2023-03-03T01:52:33;18.70;35.00
38020;DHT22;23829;51.350;17.286;2023-03-03T01:55:12;18.80;34.90
38020;DHT22;23829;51.350;17.286;2023-03-03T01:57:43;19.10;34.70
38020;DHT22;23829;51.350;17.286;2023-03-03T02:00:11;19.10;34.30
38020;DHT22;23829;51.350;17.286;2023-03-03T02:02:42;19.30;34.20
38020;DHT22;23829;51.350;17.286;2023-03-03T02:05:10;19.10;34.40
38020;DHT22;23829;51.350;17.286;2023-03-03T02:07:37;19.00;34.50
38020;DHT22;23829;51.350;17.286;2023-03-03T02:10:11;18.80;34.50
38020;DHT22;23829;51.350;17.286;2023-03-03T02:12:51;18.90;34.80
38020;DHT22;23829;51.350;17.286;2023-03-03T02:15:24;18.80;34.70
38020;DHT22;23829;51.350;17.286;2023-03-03T02:18:04;18.40;35.20
38020;DHT22;23829;51.350;17.286;2023-03-03T02:21:20;18.00;35.80
38020;DHT22;23829;51.350;17.286;2023-03-03T02:26:15;17.60;36.40
38020;DHT22;23829;51.350;17.286;2023-03-03T02:28:42;17.80;36.90
38020;DHT22;23829;51.350;17.286;2023-03-03T02:31:13;18.10;36.40
38020;DHT22;23829;51.350;17.286;2023-03-03T02:33:44;18.20;36.00
38020;DHT22;23829;51.350;17.286;2023-03-03T02:36:12;18.10;35.90
38020;DHT22;23829;51.350;17.286;2023-03-03T02:41:32;18.30;35.70
38020;DHT22;23829;51.350;17.286;2023-03-03T02:44:15;18.40;35.80
38020;DHT22;23829;51.350;17.286;2023-03-03T02:46:45;18.70;35.30
38020;DHT22;23829;51.350;17.286;2023-03-03T02:49:18;18.30;35.70
38020;DHT22;23829;51.350;17.286;2023-03-03T02:51:44;18.20;36.10
38020;DHT22;23829;51.350;17.286;2023-03-03T02:54:12;18.10;36.20
38020;DHT22;23829;51.350;17.286;2023-03-03T02:56:40;18.10;36.00
38020;DHT22;23829;51.350;17.286;2023-03-03T02:59:07;17.90;36.20
38020;DHT22;23829;51.350;17.286;2023-03-03T03:01:39;17.90;36.20
38020;DHT22;23829;51.350;17.286;2023-03-03T03:04:16;17.90;36.00
38020;DHT22;23829;51.350;17.286;2023-03-03T03:06:45;18.20;36.00
38020;DHT22;23829;51.350;17.286;2023-03-03T03:09:15;18.20;35.70
38020;DHT22;23829;51.350;17.286;2023-03-03T03:11:43;18.50;35.50
38020;DHT22;23829;51.350;17.286;2023-03-03T03:14:11;18.60;35.40
38020;DHT22;23829;51.350;17.286;2023-03-03T03:16:39;18.40;35.50
38020;DHT22;23829;51.350;17.286;2023-03-03T03:19:06;18.60;35.40
38020;DHT22;23829;51.350;17.286;2023-03-03T03:21:34;18.70;35.00
38020;DHT22;23829;51.350;17.286;2023-03-03T03:24:01;18.90;34.80
38020;DHT22;23829;51.350;17.286;2023-03-03T03:26:29;18.90;34.50
38020;DHT22;23829;51.350;17.286;2023-03-03T03:28:56;18.90;34.50
38020;DHT22;23829;51.350;17.286;2023-03-03T03:31:22;18.80;34.60
38020;DHT22;23829;51.350;17.286;2023-03-03T03:33:49;18.60;34.70
38020;DHT22;23829;51.350;17.286;2023-03-03T03:36:16;18.40;35.20
38020;DHT22;23829;51.350;17.286;2023-03-03T03:38:43;18.50;34.90
38020;DHT22;23829;51.350;17.286;2023-03-03T03:41:12;18.10;35.40
38020;DHT22;23829;51.350;17.286;2023-03-03T03:43:39;17.80;36.20
38020;DHT22;23829;51.350;17.286;2023-03-03T03:46:06;18.00;35.90
38020;DHT22;23829;51.350;17.286;2023-03-03T03:48:33;18.20;35.40
38020;DHT22;23829;51.350;17.286;2023-03-03T03:51:03;18.40;35.30
38020;DHT22;23829;51.350;17.286;2023-03-03T03:53:30;18.30;35.10
38020;DHT22;23829;51.350;17.286;2023-03-03T03:55:57;18.40;35.00
38020;DHT22;23829;51.350;17.286;2023-03-03T03:58:23;18.10;35.40
38020;DHT22;23829;51.350;17.286;2023-03-03T04:01:05;17.80;35.90
38020;DHT22;23829;51.350;17.286;2023-03-03T04:03:34;17.90;35.80
38020;DHT22;23829;51.350;17.286;2023-03-03T04:06:04;18.40;36.50
38020;DHT22;23829;51.350;17.286;2023-03-03T04:08:30;17.80;36.20
38020;DHT22;23829;51.350;17.286;2023-03-03T04:10:57;17.90;36.20
38020;DHT22;23829;51.350;17.286;2023-03-03T04:13:25;17.50;36.30
38020;DHT22;23829;51.350;17.286;2023-03-03T04:15:54;16.90;37.40
38020;DHT22;23829;51.350;17.286;2023-03-03T04:18:21;17.10;37.20
38020;DHT22;23829;51.350;17.286;2023-03-03T04:20:48;16.30;38.30
38020;DHT22;23829;51.350;17.286;2023-03-03T04:23:15;16.50;38.20
38020;DHT22;23829;51.350;17.286;2023-03-03T04:25:42;16.30;38.30
38020;DHT22;23829;51.350;17.286;2023-03-03T04:28:15;16.60;37.90
38020;DHT22;23829;51.350;17.286;2023-03-03T04:30:42;16.40;38.00
38020;DHT22;23829;51.350;17.286;2023-03-03T04:33:09;16.30;38.30
38020;DHT22;23829;51.350;17.286;2023-03-03T04:35:38;16.90;37.30
38020;DHT22;23829;51.350;17.286;2023-03-03T04:38:06;16.60;37.30
38020;DHT22;23829;51.350;17.286;2023-03-03T04:40:33;16.90;37.10
38020;DHT22;23829;51.350;17.286;2023-03-03T04:43:01;17.30;36.60
38020;DHT22;23829;51.350;17.286;2023-03-03T04:45:28;17.20;36.50
38020;DHT22;23829;51.350;17.286;2023-03-03T04:47:54;17.50;36.10
38020;DHT22;23829;51.350;17.286;2023-03-03T04:50:22;17.40;36.10
38020;DHT22;23829;51.350;17.286;2023-03-03T04:52:48;17.40;36.10
38020;DHT22;23829;51.350;17.286;2023-03-03T04:55:15;17.90;35.50
38020;DHT22;23829;51.350;17.286;2023-03-03T04:57:43;17.80;35.10
38020;DHT22;23829;51.350;17.286;2023-03-03T05:00:11;17.30;35.90
38020;DHT22;23829;51.350;17.286;2023-03-03T05:02:39;17.10;36.10
38020;DHT22;23829;51.350;17.286;2023-03-03T05:05:07;17.30;36.00
38020;DHT22;23829;51.350;17.286;2023-03-03T05:07:39;17.20;35.90
38020;DHT22;23829;51.350;17.286;2023-03-03T05:10:07;17.10;36.00
38020;DHT22;23829;51.350;17.286;2023-03-03T05:12:33;17.30;35.90
38020;DHT22;23829;51.350;17.286;2023-03-03T05:14:59;17.40;35.60
38020;DHT22;23829;51.350;17.286;2023-03-03T05:17:26;17.00;36.10
38020;DHT22;23829;51.350;17.286;2023-03-03T05:19:52;17.20;35.80
38020;DHT22;23829;51.350;17.286;2023-03-03T05:22:19;17.70;35.20
38020;DHT22;23829;51.350;17.286;2023-03-03T05:24:45;17.80;34.80
38020;DHT22;23829;51.350;17.286;2023-03-03T05:27:15;17.90;34.60
38020;DHT22;23829;51.350;17.286;2023-03-03T05:29:41;18.00;34.40
38020;DHT22;23829;51.350;17.286;2023-03-03T05:32:07;17.90;34.50
38020;DHT22;23829;51.350;17.286;2023-03-03T05:34:34;18.00;34.50
38020;DHT22;23829;51.350;17.286;2023-03-03T05:37:00;18.10;34.50
38020;DHT22;23829;51.350;17.286;2023-03-03T05:39:28;17.70;34.60
38020;DHT22;23829;51.350;17.286;2023-03-03T05:41:55;17.60;34.80
38020;DHT22;23829;51.350;17.286;2023-03-03T05:44:22;17.70;34.90
38020;DHT22;23829;51.350;17.286;2023-03-03T05:46:48;18.00;34.50
38020;DHT22;23829;51.350;17.286;2023-03-03T05:49:14;17.70;35.00
38020;DHT22;23829;51.350;17.286;2023-03-03T05:51:41;17.90;34.90
38020;DHT22;23829;51.350;17.286;2023-03-03T05:54:07;18.30;34.50
38020;DHT22;23829;51.350;17.286;2023-03-03T05:56:34;18.20;34.30
38020;DHT22;23829;51.350;17.286;2023-03-03T05:59:00;17.90;34.50
38020;DHT22;23829;51.350;17.286;2023-03-03T06:01:26;17.60;34.80
38020;DHT22;23829;51.350;17.286;2023-03-03T06:03:54;17.60;34.90
38020;DHT22;23829;51.350;17.286;2023-03-03T06:06:20;17.60;34.70
38020;DHT22;23829;51.350;17.286;2023-03-03T06:08:47;17.70;34.60
38020;DHT22;23829;51.350;17.286;2023-03-03T06:11:13;18.00;34.10
38020;DHT22;23829;51.350;17.286;2023-03-03T06:13:42;17.70;34.40
38020;DHT22;23829;51.350;17.286;2023-03-03T06:16:09;17.70;34.30
38020;DHT22;23829;51.350;17.286;2023-03-03T06:18:36;17.50;34.80
38020;DHT22;23829;51.350;17.286;2023-03-03T06:21:02;17.50;34.90
38020;DHT22;23829;51.350;17.286;2023-03-03T06:23:29;17.10;35.20
38020;DHT22;23829;51.350;17.286;2023-03-03T06:25:56;17.60;35.00
38020;DHT22;23829;51.350;17.286;2023-03-03T06:28:23;17.80;34.40
38020;DHT22;23829;51.350;17.286;2023-03-03T06:30:56;17.90;34.50
38020;DHT22;23829;51.350;17.286;2023-03-03T06:33:22;17.80;34.50
38020;DHT22;23829;51.350;17.286;2023-03-03T06:35:50;17.70;34.70
38020;DHT22;23829;51.350;17.286;2023-03-03T06:38:17;17.20;35.30
38020;DHT22;23829;51.350;17.286;2023-03-03T06:40:44;17.40;35.60
38020;DHT22;23829;51.350;17.286;2023-03-03T06:43:12;17.80;34.90
38020;DHT22;23829;51.350;17.286;2023-03-03T06:45:39;18.10;34.30
38020;DHT22;23829;51.350;17.286;2023-03-03T06:48:06;18.00;34.30
38020;DHT22;23829;51.350;17.286;2023-03-03T06:50:32;17.70;34.70
38020;DHT22;23829;51.350;17.286;2023-03-03T06:53:12;17.60;35.20
38020;DHT22;23829;51.350;17.286;2023-03-03T06:55:39;17.80;35.00
38020;DHT22;23829;51.350;17.286;2023-03-03T06:58:25;18.10;34.50
38020;DHT22;23829;51.350;17.286;2023-03-03T07:00:56;18.10;35.20
38020;DHT22;23829;51.350;17.286;2023-03-03T07:03:26;18.00;34.60
38020;DHT22;23829;51.350;17.286;2023-03-03T07:05:54;18.30;34.50
38020;DHT22;23829;51.350;17.286;2023-03-03T07:08:23;18.50;34.00
38020;DHT22;23829;51.350;17.286;2023-03-03T07:10:50;18.30;33.90
38020;DHT22;23829;51.350;17.286;2023-03-03T07:13:20;18.10;34.40
38020;DHT22;23829;51.350;17.286;2023-03-03T07:15:48;17.90;34.50
38020;DHT22;23829;51.350;17.286;2023-03-03T07:18:34;17.90;34.70
38020;DHT22;23829;51.350;17.286;2023-03-03T07:21:35;17.90;34.70
38020;DHT22;23829;51.350;17.286;2023-03-03T07:24:26;18.30;34.20
38020;DHT22;23829;51.350;17.286;2023-03-03T07:26:59;18.40;33.90
38020;DHT22;23829;51.350;17.286;2023-03-03T07:29:32;18.60;33.70
38020;DHT22;23829;51.350;17.286;2023-03-03T07:32:00;18.50;33.90
38020;DHT22;23829;51.350;17.286;2023-03-03T07:34:48;18.50;33.60
38020;DHT22;23829;51.350;17.286;2023-03-03T07:37:37;17.80;34.40
38020;DHT22;23829;51.350;17.286;2023-03-03T07:40:34;17.90;34.70
38020;DHT22;23829;51.350;17.286;2023-03-03T07:46:22;17.70;34.60
38020;DHT22;23829;51.350;17.286;2023-03-03T07:48:51;17.70;35.00
38020;DHT22;23829;51.350;17.286;2023-03-03T07:51:21;17.60;34.90
38020;DHT22;23829;51.350;17.286;2023-03-03T07:53:51;17.10;35.50
38020;DHT22;23829;51.350;17.286;2023-03-03T07:56:29;17.50;35.70
38020;DHT22;23829;51.350;17.286;2023-03-03T07:58:59;17.60;35.30
38020;DHT22;23829;51.350;17.286;2023-03-03T08:01:38;17.70;35.50
38020;DHT22;23829;51.350;17.286;2023-03-03T08:04:16;17.90;34.90
38020;DHT22;23829;51.350;17.286;2023-03-03T08:06:47;18.20;34.50
38020;DHT22;23829;51.350;17.286;2023-03-03T08:14:46;18.10;34.20
38020;DHT22;23829;51.350;17.286;2023-03-03T08:17:35;18.30;33.90
38020;DHT22;23829;51.350;17.286;2023-03-03T08:20:48;18.10;34.20
38020;DHT22;23829;51.350;17.286;2023-03-03T08:23:16;18.20;34.10
38020;DHT22;23829;51.350;17.286;2023-03-03T08:25:44;17.90;34.50
38020;DHT22;23829;51.350;17.286;2023-03-03T08:28:11;17.90;34.50
38020;DHT22;23829;51.350;17.286;2023-03-03T08:30:37;18.00;34.60
38020;DHT22;23829;51.350;17.286;2023-03-03T08:33:04;17.90;34.20
38020;DHT22;23829;51.350;17.286;2023-03-03T08:35:31;17.90;34.50
38020;DHT22;23829;51.350;17.286;2023-03-03T08:37:57;18.10;34.20
38020;DHT22;23829;51.350;17.286;2023-03-03T08:40:24;17.90;34.40
38020;DHT22;23829;51.350;17.286;2023-03-03T08:42:54;17.90;34.50
38020;DHT22;23829;51.350;17.286;2023-03-03T08:45:21;18.20;34.50
38020;DHT22;23829;51.350;17.286;2023-03-03T08:47:48;18.00;34.30
38020;DHT22;23829;51.350;17.286;2023-03-03T08:50:15;18.10;34.30
38020;DHT22;23829;51.350;17.286;2023-03-03T08:52:41;18.10;34.10
38020;DHT22;23829;51.350;17.286;2023-03-03T08:55:08;18.30;34.00
38020;DHT22;23829;51.350;17.286;2023-03-03T08:57:35;18.40;33.80
38020;DHT22;23829;51.350;17.286;2023-03-03T09:00:09;18.50;33.60
38020;DHT22;23829;51.350;17.286;2023-03-03T09:02:36;18.70;33.40
38020;DHT22;23829;51.350;17.286;2023-03-03T09:05:03;18.50;33.60
38020;DHT22;23829;51.350;17.286;2023-03-03T09:07:30;18.50;33.60
38020;DHT22;23829;51.350;17.286;2023-03-03T09:09:56;18.60;33.60
38020;DHT22;23829;51.350;17.286;2023-03-03T09:12:41;18.40;33.80
38020;DHT22;23829;51.350;17.286;2023-03-03T09:15:31;18.40;34.10
38020;DHT22;23829;51.350;17.286;2023-03-03T09:20:37;18.20;34.00
38020;DHT22;23829;51.350;17.286;2023-03-03T09:23:35;18.20;34.10
38020;DHT22;23829;51.350;17.286;2023-03-03T09:29:07;18.10;34.60
38020;DHT22;23829;51.350;17.286;2023-03-03T09:31:41;17.90;34.70
38020;DHT22;23829;51.350;17.286;2023-03-03T09:36:50;18.10;34.20
38020;DHT22;23829;51.350;17.286;2023-03-03T09:39:25;17.90;34.50
38020;DHT22;23829;51.350;17.286;2023-03-03T09:58:56;18.30;34.40
38020;DHT22;23829;51.350;17.286;2023-03-03T10:01:54;18.50;34.20
38020;DHT22;23829;51.350;17.286;2023-03-03T10:04:57;18.70;33.70
38020;DHT22;23829;51.350;17.286;2023-03-03T10:07:33;18.30;33.90
38020;DHT22;23829;51.350;17.286;2023-03-03T10:10:05;18.40;33.70
38020;DHT22;23829;51.350;17.286;2023-03-03T10:15:38;18.10;34.10
38020;DHT22;23829;51.350;17.286;2023-03-03T10:26:40;18.20;34.40
38020;DHT22;23829;51.350;17.286;2023-03-03T10:32:39;18.70;33.90
38020;DHT22;23829;51.350;17.286;2023-03-03T10:46:20;19.00;33.20
38020;DHT22;23829;51.350;17.286;2023-03-03T10:51:51;18.50;33.80
38020;DHT22;23829;51.350;17.286;2023-03-03T11:00:02;18.90;33.60
38020;DHT22;23829;51.350;17.286;2023-03-03T11:05:23;18.50;33.90
38020;DHT22;23829;51.350;17.286;2023-03-03T11:08:43;18.60;33.90
38020;DHT22;23829;51.350;17.286;2023-03-03T11:11:38;18.40;34.10
38020;DHT22;23829;51.350;17.286;2023-03-03T11:22:18;18.20;34.60
38020;DHT22;23829;51.350;17.286;2023-03-03T11:25:02;18.00;34.80
38020;DHT22;23829;51.350;17.286;2023-03-03T11:30:30;18.30;34.70
38020;DHT22;23829;51.350;17.286;2023-03-03T11:38:55;18.00;34.70
38020;DHT22;23829;51.350;17.286;2023-03-03T11:44:33;18.30;34.60
38020;DHT22;23829;51.350;17.286;2023-03-03T11:47:05;18.30;34.70
38020;DHT22;23829;51.350;17.286;2023-03-03T11:53:06;17.80;35.00
38020;DHT22;23829;51.350;17.286;2023-03-03T11:55:38;18.10;35.10
38020;DHT22;23829;51.350;17.286;2023-03-03T11:58:15;18.50;34.80
38020;DHT22;23829;51.350;17.286;2023-03-03T12:00:50;18.30;34.40
38020;DHT22;23829;51.350;17.286;2023-03-03T12:08:44;18.50;34.30
38020;DHT22;23829;51.350;17.286;2023-03-03T12:16:42;18.60;34.80
38020;DHT22;23829;51.350;17.286;2023-03-03T12:25:18;18.10;35.00
38020;DHT22;23829;51.350;17.286;2023-03-03T12:33:03;18.30;34.90
38020;DHT22;23829;51.350;17.286;2023-03-03T12:41:30;18.70;34.50
38020;DHT22;23829;51.350;17.286;2023-03-03T12:46:42;18.60;34.10
38020;DHT22;23829;51.350;17.286;2023-03-03T12:49:09;18.80;34.10
38020;DHT22;23829;51.350;17.286;2023-03-03T12:52:04;18.60;34.20
38020;DHT22;23829;51.350;17.286;2023-03-03T13:05:28;18.60;34.30
38020;DHT22;23829;51.350;17.286;2023-03-03T13:11:25;18.60;34.70
38020;DHT22;23829;51.350;17.286;2023-03-03T13:14:00;18.80;33.80
38020;DHT22;23829;51.350;17.286;2023-03-03T13:16:34;19.00;33.80
38020;DHT22;23829;51.350;17.286;2023-03-03T13:19:14;19.10;33.40
38020;DHT22;23829;51.350;17.286;2023-03-03T13:24:53;18.20;34.70
38020;DHT22;23829;51.350;17.286;2023-03-03T13:27:27;18.50;34.80
38020;DHT22;23829;51.350;17.286;2023-03-03T13:30:19;19.00;33.90
38020;DHT22;23829;51.350;17.286;2023-03-03T13:35:43;19.10;33.70
38020;DHT22;23829;51.350;17.286;2023-03-03T13:38:19;18.50;34.20
38020;DHT22;23829;51.350;17.286;2023-03-03T13:40:53;18.50;34.40
38020;DHT22;23829;51.350;17.286;2023-03-03T14:10:30;19.20;33.10
38020;DHT22;23829;51.350;17.286;2023-03-03T14:13:08;19.10;33.20
38020;DHT22;23829;51.350;17.286;2023-03-03T14:15:57;18.90;33.60
38020;DHT22;23829;51.350;17.286;2023-03-03T14:19:13;19.00;33.40
38020;DHT22;23829;51.350;17.286;2023-03-03T14:22:16;18.90;33.60
38020;DHT22;23829;51.350;17.286;2023-03-03T14:25:15;18.40;34.10
38020;DHT22;23829;51.350;17.286;2023-03-03T14:30:35;18.30;34.60
38020;DHT22;23829;51.350;17.286;2023-03-03T14:35:36;18.80;33.90
38020;DHT22;23829;51.350;17.286;2023-03-03T14:38:12;19.10;33.60
38020;DHT22;23829;51.350;17.286;2023-03-03T14:40:41;18.90;33.80
38020;DHT22;23829;51.350;17.286;2023-03-03T14:43:40;19.10;33.60
38020;DHT22;23829;51.350;17.286;2023-03-03T14:46:32;18.90;33.50
38020;DHT22;23829;51.350;17.286;2023-03-03T14:49:04;19.30;33.40
38020;DHT22;23829;51.350;17.286;2023-03-03T14:51:46;19.20;33.20
38020;DHT22;23829;51.350;17.286;2023-03-03T14:54:26;19.10;33.40
38020;DHT22;23829;51.350;17.286;2023-03-03T14:57:06;19.00;33.40
38020;DHT22;23829;51.350;17.286;2023-03-03T14:59:35;18.70;33.70
38020;DHT22;23829;51.350;17.286;2023-03-03T15:04:44;19.00;33.60
38020;DHT22;23829;51.350;17.286;2023-03-03T15:07:35;19.10;33.40
38020;DHT22;23829;51.350;17.286;2023-03-03T15:10:04;19.20;33.30
38020;DHT22;23829;51.350;17.286;2023-03-03T15:15:18;19.30;32.80
38020;DHT22;23829;51.350;17.286;2023-03-03T15:23:16;18.70;33.90
38020;DHT22;23829;51.350;17.286;2023-03-03T15:29:10;18.80;34.00
38020;DHT22;23829;51.350;17.286;2023-03-03T15:37:05;19.50;32.40
38020;DHT22;23829;51.350;17.286;2023-03-03T15:42:26;19.30;32.90
38020;DHT22;23829;51.350;17.286;2023-03-03T15:56:27;18.70;33.90
38020;DHT22;23829;51.350;17.286;2023-03-03T15:59:28;18.60;33.70
38020;DHT22;23829;51.350;17.286;2023-03-03T16:02:15;18.80;33.40
38020;DHT22;23829;51.350;17.286;2023-03-03T16:05:48;19.00;33.20
38020;DHT22;23829;51.350;17.286;2023-03-03T16:08:02;18.80;33.40
38020;DHT22;23829;51.350;17.286;2023-03-03T16:16:10;18.50;33.90
38020;DHT22;23829;51.350;17.286;2023-03-03T16:21:49;18.60;34.30
38020;DHT22;23829;51.350;17.286;2023-03-03T16:24:36;18.90;33.60
38020;DHT22;23829;51.350;17.286;2023-03-03T16:27:18;18.90;33.40
38020;DHT22;23829;51.350;17.286;2023-03-03T16:30:05;18.90;33.30
38020;DHT22;23829;51.350;17.286;2023-03-03T16:32:39;18.70;33.60
38020;DHT22;23829;51.350;17.286;2023-03-03T16:35:25;18.70;33.80
38020;DHT22;23829;51.350;17.286;2023-03-03T16:38:03;18.30;34.00
38020;DHT22;23829;51.350;17.286;2023-03-03T16:43:45;18.40;34.30
38020;DHT22;23829;51.350;17.286;2023-03-03T16:46:37;18.80;33.80
38020;DHT22;23829;51.350;17.286;2023-03-03T16:52:02;18.40;34.20
38020;DHT22;23829;51.350;17.286;2023-03-03T16:54:33;18.60;34.40
38020;DHT22;23829;51.350;17.286;2023-03-03T16:57:15;18.40;34.50
38020;DHT22;23829;51.350;17.286;2023-03-03T17:00:04;18.90;34.00
38020;DHT22;23829;51.350;17.286;2023-03-03T17:02:48;18.80;33.80
38020;DHT22;23829;51.350;17.286;2023-03-03T17:05:46;19.00;33.60
38020;DHT22;23829;51.350;17.286;2023-03-03T17:08:52;19.00;33.60
38020;DHT22;23829;51.350;17.286;2023-03-03T17:15:11;18.40;34.30
38020;DHT22;23829;51.350;17.286;2023-03-03T17:17:56;18.60;34.20
38020;DHT22;23829;51.350;17.286;2023-03-03T17:23:32;18.20;34.70
38020;DHT22;23829;51.350;17.286;2023-03-03T17:29:07;18.40;34.70
38020;DHT22;23829;51.350;17.286;2023-03-03T17:32:07;18.40;34.80
38020;DHT22;23829;51.350;17.286;2023-03-03T17:34:53;18.10;34.90
38020;DHT22;23829;51.350;17.286;2023-03-03T17:45:36;18.10;34.70
38020;DHT22;23829;51.350;17.286;2023-03-03T17:56:50;17.80;35.30
38020;DHT22;23829;51.350;17.286;2023-03-03T18:02:28;18.30;35.10
38020;DHT22;23829;51.350;17.286;2023-03-03T18:08:02;17.90;35.30
38020;DHT22;23829;51.350;17.286;2023-03-03T18:22:06;17.30;36.80
38020;DHT22;23829;51.350;17.286;2023-03-03T18:24:54;17.70;36.00
38020;DHT22;23829;51.350;17.286;2023-03-03T18:35:30;18.20;34.90
38020;DHT22;23829;51.350;17.286;2023-03-03T18:38:23;17.80;35.30
38020;DHT22;23829;51.350;17.286;2023-03-03T19:04:49;18.40;34.70
38020;DHT22;23829;51.350;17.286;2023-03-03T19:10:04;17.80;35.90
38020;DHT22;23829;51.350;17.286;2023-03-03T19:20:36;17.40;36.70
38020;DHT22;23829;51.350;17.286;2023-03-03T19:23:14;17.90;35.80
38020;DHT22;23829;51.350;17.286;2023-03-03T19:25:41;17.50;35.90
38020;DHT22;23829;51.350;17.286;2023-03-03T19:28:28;17.50;36.40
38020;DHT22;23829;51.350;17.286;2023-03-03T19:39:56;18.50;34.50
38020;DHT22;23829;51.350;17.286;2023-03-03T19:47:56;19.00;33.90
38020;DHT22;23829;51.350;17.286;2023-03-03T19:53:33;19.30;33.40
38020;DHT22;23829;51.350;17.286;2023-03-03T19:56:33;19.10;33.50
38020;DHT22;23829;51.350;17.286;2023-03-03T20:04:35;18.50;34.30
38020;DHT22;23829;51.350;17.286;2023-03-03T20:21:58;18.80;33.70
38020;DHT22;23829;51.350;17.286;2023-03-03T20:30:04;18.30;35.00
38020;DHT22;23829;51.350;17.286;2023-03-03T20:38:32;18.60;34.50
38020;DHT22;23829;51.350;17.286;2023-03-03T20:46:25;18.10;35.50
38020;DHT22;23829;51.350;17.286;2023-03-03T20:52:01;18.40;35.00
38020;DHT22;23829;51.350;17.286;2023-03-03T21:00:37;17.70;35.60
38020;DHT22;23829;51.350;17.286;2023-03-03T21:11:06;18.10;35.20
38020;DHT22;23829;51.350;17.286;2023-03-03T21:13:41;18.20;35.20
38020;DHT22;23829;51.350;17.286;2023-03-03T21:16:35;18.20;35.10
38020;DHT22;23829;51.350;17.286;2023-03-03T21:19:06;18.10;35.10
38020;DHT22;23829;51.350;17.286;2023-03-03T21:21:39;18.40;34.80
38020;DHT22;23829;51.350;17.286;2023-03-03T21:24:09;18.20;34.80
38020;DHT22;23829;51.350;17.286;2023-03-03T21:26:55;18.10;35.00
38020;DHT22;23829;51.350;17.286;2023-03-03T21:29:28;18.20;34.80
38020;DHT22;23829;51.350;17.286;2023-03-03T21:32:04;17.90;35.30
38020;DHT22;23829;51.350;17.286;2023-03-03T21:34:38;18.00;35.20
38020;DHT22;23829;51.350;17.286;2023-03-03T21:37:13;18.00;35.40
38020;DHT22;23829;51.350;17.286;2023-03-03T21:40:31;18.20;35.00
38020;DHT22;23829;51.350;17.286;2023-03-03T21:42:58;17.60;35.40
38020;DHT22;23829;51.350;17.286;2023-03-03T21:45:27;17.00;36.70
38020;DHT22;23829;51.350;17.286;2023-03-03T21:47:55;16.90;37.20
38020;DHT22;23829;51.350;17.286;2023-03-03T21:50:23;16.90;37.30
38020;DHT22;23829;51.350;17.286;2023-03-03T21:52:50;16.80;37.40
38020;DHT22;23829;51.350;17.286;2023-03-03T21:55:17;16.90;37.20
38020;DHT22;23829;51.350;17.286;2023-03-03T21:57:43;17.40;36.80
38020;DHT22;23829;51.350;17.286;2023-03-03T22:00:10;17.50;36.30
38020;DHT22;23829;51.350;17.286;2023-03-03T22:02:37;17.20;36.40
38020;DHT22;23829;51.350;17.286;2023-03-03T22:05:04;17.20;36.90
38020;DHT22;23829;51.350;17.286;2023-03-03T22:07:32;17.40;36.50
38020;DHT22;23829;51.350;17.286;2023-03-03T22:09:59;17.20;36.40
38020;DHT22;23829;51.350;17.286;2023-03-03T22:12:25;17.20;36.60
38020;DHT22;23829;51.350;17.286;2023-03-03T22:14:51;17.30;36.50
38020;DHT22;23829;51.350;17.286;2023-03-03T22:17:18;17.50;36.20
38020;DHT22;23829;51.350;17.286;2023-03-03T22:19:44;17.80;35.70
38020;DHT22;23829;51.350;17.286;2023-03-03T22:22:10;17.60;35.70
38020;DHT22;23829;51.350;17.286;2023-03-03T22:24:37;17.90;35.80
38020;DHT22;23829;51.350;17.286;2023-03-03T22:27:03;17.80;35.40
38020;DHT22;23829;51.350;17.286;2023-03-03T22:29:30;17.60;35.80
38020;DHT22;23829;51.350;17.286;2023-03-03T22:31:56;17.80;35.60
38020;DHT22;23829;51.350;17.286;2023-03-03T22:34:23;17.60;36.10